createdAt,value
2023-01-17T00:01:19.550Z,1.47
2023-01-17T00:07:32.132Z,1.10
2023-01-17T00:13:25.370Z,1.20
2023-01-17T00:19:36.853Z,1.40
2023-01-17T00:25:50.842Z,1.20
2023-01-17T00:31:43.151Z,1.27
2023-01-17T00:37:36.896Z,1.47
2023-01-17T00:43:48.930Z,1.17
2023-01-17T00:50:00.127Z,1.33
2023-01-17T00:56:12.499Z,1.10
2023-01-17T01:02:23.021Z,1.57
2023-01-17T01:08:39.656Z,1.00
2023-01-17T01:14:51.805Z,1.53
2023-01-17T01:21:02.901Z,1.40
2023-01-17T01:27:13.668Z,1.70
2023-01-17T01:33:21.351Z,1.37
2023-01-17T01:39:14.899Z,1.50
2023-01-17T01:45:18.422Z,1.60
2023-01-17T01:51:18.479Z,1.20
2023-01-17T01:57:15.912Z,1.60
2023-01-17T02:03:12.849Z,1.40
2023-01-17T02:09:11.110Z,1.20
2023-01-17T02:15:07.122Z,1.63
2023-01-17T02:21:13.677Z,2.00
2023-01-17T02:27:17.210Z,1.90
2023-01-17T02:33:23.096Z,2.40
2023-01-17T02:39:20.900Z,3.07
2023-01-17T02:45:18.199Z,2.70
2023-01-17T02:51:41.424Z,2.50
2023-01-17T02:57:50.216Z,3.17
2023-01-17T03:03:51.197Z,3.87
2023-01-17T03:09:47.998Z,3.60
2023-01-17T03:15:41.958Z,4.23
2023-01-17T03:21:35.360Z,4.33
2023-01-17T03:27:29.779Z,4.90
2023-01-17T03:33:22.794Z,5.10
2023-01-17T03:39:16.263Z,5.40
2023-01-17T03:45:11.761Z,5.60
2023-01-17T03:51:05.303Z,6.33
2023-01-17T03:56:58.414Z,6.00
2023-01-17T04:02:52.831Z,5.70
2023-01-17T04:08:46.332Z,4.93
2023-01-17T04:14:41.308Z,5.90
2023-01-17T04:20:38.272Z,6.17
2023-01-17T04:26:31.667Z,6.30
2023-01-17T04:32:25.112Z,5.70
2023-01-17T04:38:19.987Z,3.20
2023-01-17T04:44:13.443Z,3.13
2023-01-17T04:50:06.993Z,3.00
2023-01-17T04:56:01.852Z,3.40
2023-01-17T05:01:54.955Z,3.20
2023-01-17T05:07:54.873Z,4.37
2023-01-17T05:13:50.356Z,4.40
2023-01-17T05:19:43.820Z,4.07
2023-01-17T05:25:36.913Z,4.67
2023-01-17T05:31:31.385Z,4.80
2023-01-17T05:37:24.499Z,5.23
2023-01-17T05:43:17.605Z,5.00
2023-01-17T05:49:12.377Z,5.37
2023-01-17T05:55:07.409Z,4.93
2023-01-17T06:01:01.247Z,3.77
2023-01-17T06:06:55.701Z,2.97
2023-01-17T06:12:50.243Z,3.23
2023-01-17T06:18:43.251Z,2.70
2023-01-17T06:24:38.394Z,1.80
2023-01-17T06:30:32.086Z,1.03
2023-01-17T06:36:25.261Z,0.73
2023-01-17T06:42:19.570Z,0.70
2023-01-17T06:48:13.124Z,0.70
2023-01-17T06:54:06.250Z,0.70
2023-01-17T07:00:00.895Z,0.93
2023-01-17T07:05:54.642Z,0.80
2023-01-17T07:11:48.934Z,0.90
2023-01-17T07:17:43.377Z,0.83
2023-01-17T07:23:36.371Z,1.10
2023-01-17T07:29:30.607Z,1.20
2023-01-17T07:35:27.103Z,0.90
2023-01-17T07:41:20.583Z,0.70
2023-01-17T07:47:13.671Z,0.90
2023-01-17T07:53:08.818Z,1.13
2023-01-17T07:59:02.471Z,1.10
2023-01-17T08:04:55.553Z,1.60
2023-01-17T08:10:51.925Z,1.50
2023-01-17T08:16:44.958Z,1.40
2023-01-17T08:22:37.952Z,1.40
2023-01-17T08:28:32.519Z,1.40
2023-01-17T08:34:26.266Z,1.40
2023-01-17T08:40:19.670Z,1.40
2023-01-17T08:46:14.451Z,1.10
2023-01-17T08:52:07.898Z,1.50
2023-01-17T08:58:01.460Z,1.47
2023-01-17T09:03:56.114Z,1.10
2023-01-17T09:09:49.613Z,0.80
2023-01-17T09:15:43.076Z,1.00
2023-01-17T09:21:37.534Z,1.60
2023-01-17T09:27:31.011Z,1.83
2023-01-17T09:33:24.381Z,1.23
2023-01-17T09:39:19.257Z,1.13
2023-01-17T09:45:14.797Z,1.40
2023-01-17T09:51:13.297Z,1.20
2023-01-17T09:57:18.944Z,1.13
2023-01-17T10:03:32.931Z,1.70
2023-01-17T10:09:47.383Z,1.80
2023-01-17T10:16:03.643Z,1.60
2023-01-17T10:22:07.878Z,0.80
2023-01-17T10:28:05.362Z,1.10
2023-01-17T10:34:07.380Z,1.40
2023-01-17T10:40:14.097Z,1.27
2023-01-17T10:46:12.862Z,1.03
2023-01-17T10:52:16.757Z,1.33
2023-01-17T10:58:13.045Z,1.10
2023-01-17T11:04:17.753Z,1.17
2023-01-17T11:10:36.578Z,0.83
2023-01-17T11:16:32.806Z,1.27
2023-01-17T11:22:26.533Z,0.93
2023-01-17T11:28:26.380Z,1.03
2023-01-17T11:34:25.275Z,1.30
2023-01-17T11:40:26.934Z,0.87
2023-01-17T11:46:22.179Z,1.23
2023-01-17T11:52:23.147Z,1.20
2023-01-17T11:58:16.789Z,1.03
2023-01-17T12:04:25.139Z,0.90
2023-01-17T12:10:24.698Z,1.00
2023-01-17T12:16:34.317Z,0.90
2023-01-17T12:22:42.292Z,0.77
2023-01-17T12:28:59.735Z,1.00
2023-01-17T12:34:58.342Z,0.80
2023-01-17T12:40:57.068Z,1.17
2023-01-17T12:46:57.651Z,1.20
2023-01-17T12:52:59.802Z,0.80
2023-01-17T12:58:57.599Z,0.90
2023-01-17T13:04:59.223Z,1.03
2023-01-17T13:10:57.660Z,0.80
2023-01-17T13:16:57.896Z,0.80
2023-01-17T13:22:52.657Z,1.13
2023-01-17T13:28:58.407Z,1.37
2023-01-17T13:35:17.574Z,1.00
2023-01-17T13:41:18.133Z,0.80
2023-01-17T13:47:49.863Z,0.90
2023-01-17T13:53:54.992Z,0.80
2023-01-17T13:59:48.597Z,1.37
2023-01-17T14:05:49.261Z,0.90
2023-01-17T14:12:01.275Z,0.70
2023-01-17T14:17:57.640Z,0.90
2023-01-17T14:23:59.774Z,0.90
2023-01-17T14:29:58.819Z,0.80
2023-01-17T14:35:55.389Z,1.00
2023-01-17T14:41:48.991Z,0.80
2023-01-17T14:47:45.847Z,1.73
2023-01-17T14:53:39.429Z,0.97
2023-01-17T14:59:32.694Z,1.00
2023-01-17T15:05:30.540Z,1.07
2023-01-17T15:11:26.584Z,1.07
2023-01-17T15:17:21.816Z,0.80
2023-01-17T15:23:20.220Z,0.90
2023-01-17T15:29:19.134Z,1.17
2023-01-17T15:35:18.659Z,0.90
2023-01-17T15:41:16.976Z,0.80
2023-01-17T15:47:28.522Z,1.10
2023-01-17T15:53:31.209Z,1.13
2023-01-17T15:59:40.067Z,0.90
2023-01-17T16:05:41.804Z,1.20
2023-01-17T16:11:35.658Z,1.27
2023-01-17T16:17:31.230Z,1.30
2023-01-17T16:23:24.727Z,1.20
2023-01-17T16:29:17.714Z,1.10
2023-01-17T16:35:19.376Z,1.60
2023-01-17T16:41:13.088Z,1.87
2023-01-17T16:47:07.018Z,1.50
2023-01-17T16:53:01.544Z,1.70
2023-01-17T16:58:54.984Z,2.03
2023-01-17T17:04:48.378Z,2.00
2023-01-17T17:10:43.230Z,2.37
2023-01-17T17:16:36.715Z,2.63
2023-01-17T17:22:31.510Z,2.80
2023-01-17T17:28:26.358Z,2.50
2023-01-17T17:34:19.928Z,2.33
2023-01-17T17:40:13.267Z,2.77
2023-01-17T17:46:08.888Z,2.20
2023-01-17T17:52:05.578Z,2.47
2023-01-17T17:57:59.123Z,2.73
2023-01-17T18:03:54.557Z,2.90
2023-01-17T18:09:48.021Z,2.67
2023-01-17T18:15:41.007Z,3.13
2023-01-17T18:21:38.433Z,3.40
2023-01-17T18:27:31.892Z,3.30
2023-01-17T18:33:25.454Z,3.57
2023-01-17T18:39:22.466Z,3.73
2023-01-17T18:45:16.074Z,4.00
2023-01-17T18:51:11.276Z,4.80
2023-01-17T18:57:05.717Z,4.30
2023-01-17T19:02:59.200Z,4.13
2023-01-17T19:08:53.476Z,4.40
2023-01-17T19:14:47.978Z,4.47
2023-01-17T19:20:42.125Z,5.10
2023-01-17T19:26:35.268Z,4.77
2023-01-17T19:32:30.086Z,5.50
2023-01-17T19:38:23.633Z,5.30
2023-01-17T19:44:16.679Z,4.70
2023-01-17T19:50:12.896Z,5.30
2023-01-17T19:56:07.541Z,6.20
2023-01-17T20:02:01.730Z,6.10
2023-01-17T20:07:56.873Z,5.73
2023-01-17T20:13:54.504Z,6.30
2023-01-17T20:19:47.953Z,5.77
2023-01-17T20:25:43.998Z,5.43
2023-01-17T20:31:39.445Z,6.40
2023-01-17T20:37:32.546Z,6.13
2023-01-17T20:43:26.892Z,5.50
2023-01-17T20:49:22.206Z,5.47
2023-01-17T20:55:15.551Z,6.87
2023-01-17T21:01:12.426Z,5.90
2023-01-17T21:07:05.919Z,5.73
2023-01-17T21:13:00.555Z,5.77
2023-01-17T21:18:55.874Z,6.63
2023-01-17T21:24:50.509Z,6.03
2023-01-17T21:30:43.954Z,5.60
2023-01-17T21:36:40.750Z,5.60
2023-01-17T21:42:34.229Z,6.37
2023-01-17T21:48:27.203Z,6.50
2023-01-17T21:54:42.202Z,7.60
2023-01-17T22:00:35.991Z,7.80
2023-01-17T22:06:31.259Z,7.17
2023-01-17T22:12:26.552Z,8.70
2023-01-17T22:18:20.068Z,8.43
2023-01-17T22:24:15.889Z,8.40
2023-01-17T22:30:13.232Z,9.43
2023-01-17T22:36:07.283Z,8.90
2023-01-17T22:42:00.736Z,9.13
2023-01-17T22:47:55.069Z,9.00
2023-01-17T22:53:50.319Z,8.83
2023-01-17T22:59:43.751Z,8.87
2023-01-17T23:05:46.864Z,9.90
2023-01-17T23:11:42.499Z,9.30
2023-01-17T23:17:53.320Z,9.37
2023-01-17T23:23:48.170Z,8.90
2023-01-17T23:29:41.768Z,9.57
2023-01-17T23:35:41.570Z,9.70
2023-01-17T23:41:54.005Z,10.23
2023-01-17T23:47:47.003Z,9.97
2023-01-17T23:53:41.381Z,10.70
2023-01-17T23:59:36.232Z,9.90
